KEPH/EPH METAR and TAF weather

Enter ICAO airport designator
Station Type Date Time Source
KEPH METAR 2020/04/02 03:53 UTC NOAA

KEPH 020353Z AUTO 03006KT 10SM CLR 04/M04 A2999 RMK AO2 SLP167 T00391044


Station Type Date Time Source
KEPH Decoded METAR 2020/04/02 03:53 UTC NOAA

EPHRATA MUNICIPAL AIRPORT, WA, United States (KEPH) 47-18N 119-31W 383M
Apr 01, 2020 - 11:53 PM EDT / 2020.04.02 0353 UTC
Wind: from the NNE (030 degrees) at 7 MPH (6 KT):0
Visibility: 10 mile(s):0
Sky conditions: clear
Temperature: 39.0 F (3.9 C)
Dew Point: 24.1 F (-4.4 C)
Relative Humidity: 54%
Pressure (altimeter): 29.99 in. Hg (1015 hPa)
ob: KEPH 020353Z AUTO 03006KT 10SM CLR 04/M04 A2999 RMK AO2 SLP167 T00391044
cycle: 4

Station Type Date Time Source
KEPH TAF UTC NOAA

Error!

Example: see airport list